Time;durP1;ratioP1;P1;durP2;ratioP2;P2;SDS_P1;SDS_P2;PMS_P1;PMS_P2;Temp;Humidity;BMP_temperature;BMP_pressure;BME280_temperature;BME280_humidity;BME280_pressure;Samples;Min_cycle;Max_cycle;Signal;HPM_P1;HPM_P2
2024/04/01 18:05:35;;;;;;;49.07;6.93;;;20.20;93.60;;;;;;5113328;27;20297;-77
2024/04/01 18:08:22;;;;;;;54.50;7.80;;;19.90;94.30;;;;;;5093817;28;20199;-77
2024/04/01 18:11:11;;;;;;;63.00;8.03;;;19.80;94.40;;;;;;5094437;28;20196;-78
2024/04/01 18:13:58;;;;;;;64.27;8.23;;;19.90;94.50;;;;;;5093410;28;20631;-78
2024/04/01 18:16:46;;;;;;;60.63;7.83;;;19.80;94.60;;;;;;5080081;28;20185;-78
2024/04/01 18:19:34;;;;;;;54.77;8.20;;;19.80;94.70;;;;;;5079346;28;20223;-78
2024/04/01 18:22:21;;;;;;;58.80;8.50;;;19.80;94.80;;;;;;5080672;28;20197;-77
2024/04/01 18:25:08;;;;;;;61.17;8.40;;;19.80;95.00;;;;;;5079132;28;20213;-78
2024/04/01 18:27:58;;;;;;;54.47;8.50;;;19.80;95.30;;;;;;5080856;28;20189;-78
2024/04/01 18:30:45;;;;;;;63.37;8.27;;;19.70;95.30;;;;;;5093496;28;20193;-78
2024/04/01 18:33:31;;;;;;;65.87;8.67;;;19.70;95.50;;;;;;5093303;28;20249;-78
2024/04/01 18:36:18;;;;;;;58.60;7.77;;;19.70;95.60;;;;;;5079341;28;20193;-78
2024/04/01 18:39:04;;;;;;;59.33;8.97;;;19.70;95.80;;;;;;5093332;28;20189;-77
2024/04/01 18:41:54;;;;;;;56.30;8.87;;;19.60;95.90;;;;;;5093257;28;20193;-77
2024/04/01 18:44:42;;;;;;;55.83;8.50;;;19.60;96.10;;;;;;5092944;28;20227;-76
2024/04/01 18:47:31;;;;;;;55.97;8.43;;;19.60;96.20;;;;;;5093676;28;20189;-75
2024/04/01 18:50:24;;;;;;;54.27;8.60;;;19.60;96.40;;;;;;5079523;28;20718;-78
2024/04/01 18:53:11;;;;;;;56.87;7.90;;;19.60;96.50;;;;;;5093015;28;20193;-81
2024/04/01 18:56:02;;;;;;;53.80;8.33;;;19.60;96.70;;;;;;5078875;28;20189;-82
2024/04/01 18:58:48;;;;;;;58.63;8.23;;;19.50;96.80;;;;;;5092929;28;20294;-81
2024/04/01 19:01:35;;;;;;;59.00;9.27;;;19.50;96.70;;;;;;5094038;28;20195;-82
2024/04/01 19:04:21;;;;;;;54.13;8.63;;;19.50;96.80;;;;;;5098153;28;20679;-77
2024/04/01 19:07:08;;;;;;;51.03;8.10;;;19.50;97.10;;;;;;5093824;28;20197;-77
2024/04/01 19:09:55;;;;;;;50.93;8.27;;;19.50;97.20;;;;;;5106466;28;20556;-77
2024/04/01 19:12:41;;;;;;;50.30;8.90;;;19.50;97.20;;;;;;5105994;28;20231;-77
2024/04/01 19:15:27;;;;;;;54.60;7.90;;;19.50;97.60;;;;;;5100708;28;20200;-77
2024/04/01 19:18:14;;;;;;;59.97;9.20;;;19.50;97.30;;;;;;5080063;28;20186;-77
2024/04/01 19:21:00;;;;;;;58.73;8.17;;;19.40;97.40;;;;;;5092907;28;20558;-77
2024/04/01 19:23:47;;;;;;;53.60;8.03;;;19.40;97.50;;;;;;5092952;28;20304;-77
2024/04/01 19:26:33;;;;;;;50.70;8.20;;;19.40;97.70;;;;;;5092072;28;20211;-77
2024/04/01 19:29:19;;;;;;;47.77;7.97;;;19.40;97.80;;;;;;5092076;28;20231;-77
2024/04/01 19:32:06;;;;;;;50.80;8.30;;;19.40;97.90;;;;;;5092977;28;20193;-77
2024/04/01 19:34:53;;;;;;;55.73;8.23;;;19.30;98.00;;;;;;5078101;28;20210;-80
2024/04/01 19:37:39;;;;;;;63.37;8.93;;;19.30;98.00;;;;;;5092199;28;20375;-78
2024/04/01 19:40:26;;;;;;;117.93;38.93;;;19.20;98.20;;;;;;5092118;28;20189;-77
2024/04/01 19:43:12;;;;;;;67.60;15.27;;;19.20;98.40;;;;;;5092912;28;20196;-75
2024/04/01 19:46:00;;;;;;;55.53;8.13;;;19.20;99.00;;;;;;5093095;28;20690;-75
2024/04/01 19:48:47;;;;;;;60.27;9.07;;;19.20;98.60;;;;;;5078443;28;20200;-76
2024/04/01 19:51:35;;;;;;;50.20;8.00;;;19.20;98.70;;;;;;5091692;28;20653;-76
2024/04/01 19:54:22;;;;;;;48.70;8.67;;;19.10;98.80;;;;;;5091532;28;20709;-76
2024/04/01 19:57:09;;;;;;;56.57;8.57;;;19.10;98.90;;;;;;5092961;28;20182;-76
2024/04/01 19:59:56;;;;;;;56.07;8.67;;;19.10;99.20;;;;;;5091770;28;20246;-77
2024/04/01 20:02:42;;;;;;;68.90;8.37;;;19.10;99.00;;;;;;5090923;28;20186;-77
2024/04/01 20:05:29;;;;;;;53.23;8.07;;;19.10;99.10;;;;;;5091538;28;20680;-76
2024/04/01 20:08:28;;;;;;;44.40;7.83;;;19.10;99.20;;;;;;5092244;28;20244;-77
2024/04/01 20:11:16;;;;;;;43.60;7.33;;;19.10;99.20;;;;;;5091338;28;20196;-77
2024/04/01 20:14:06;;;;;;;70.27;8.73;;;19.10;99.30;;;;;;5078259;28;20186;-75
2024/04/01 20:16:53;;;;;;;53.00;8.90;;;19.10;99.20;;;;;;5092020;28;20193;-76
2024/04/01 20:19:41;;;;;;;59.80;8.10;;;19.10;99.30;;;;;;5091225;28;20220;-75
2024/04/01 20:22:27;;;;;;;43.90;7.50;;;19.10;99.40;;;;;;5077769;28;20563;-75
2024/04/01 20:25:17;;;;;;;51.13;7.83;;;19.10;99.30;;;;;;5091168;28;20688;-75
2024/04/01 20:28:09;;;;;;;56.07;8.07;;;19.10;99.40;;;;;;5090764;28;20190;-76
2024/04/01 20:30:56;;;;;;;49.00;7.87;;;19.10;99.40;;;;;;5092191;28;20201;-76
2024/04/01 20:33:45;;;;;;;51.80;8.53;;;19.10;99.60;;;;;;5077775;28;20205;-76
2024/04/01 20:36:38;;;;;;;53.00;8.23;;;19.10;99.90;;;;;;5091086;28;20194;-75
2024/04/01 20:39:27;;;;;;;45.40;7.70;;;19.10;99.70;;;;;;5077290;28;20189;-75
2024/04/01 20:42:16;;;;;;;38.60;7.10;;;19.10;99.70;;;;;;5077995;28;20565;-77
2024/04/01 20:45:24;;;;;;;45.50;7.80;;;19.00;99.80;;;;;;5091488;28;20598;-78
2024/04/01 20:48:29;;;;;;;47.97;7.50;;;19.10;99.70;;;;;;5091484;28;20208;-78
2024/04/01 20:51:16;;;;;;;53.57;8.10;;;19.10;99.70;;;;;;5076636;28;20200;-78
2024/04/01 20:54:04;;;;;;;60.57;8.00;;;19.10;99.70;;;;;;5091402;28;20654;-79
2024/04/01 20:56:57;;;;;;;44.00;7.63;;;19.10;99.80;;;;;;5077020;28;20207;-79
2024/04/01 20:59:43;;;;;;;49.50;7.47;;;19.10;99.90;;;;;;5076957;28;20190;-79
2024/04/01 21:02:37;;;;;;;52.87;7.83;;;19.10;99.90;;;;;;5095612;28;20257;-78
2024/04/01 21:05:28;;;;;;;47.60;7.50;;;19.00;99.90;;;;;;5079484;28;20246;-79
2024/04/01 21:08:15;;;;;;;60.37;7.30;;;19.00;99.90;;;;;;5097588;28;20208;-79
2024/04/01 21:11:02;;;;;;;58.63;14.13;;;19.00;99.90;;;;;;5097201;28;20660;-78
2024/04/01 21:13:49;;;;;;;49.90;9.27;;;18.90;99.90;;;;;;5097269;28;20230;-78
2024/04/01 21:16:36;;;;;;;48.97;7.07;;;18.90;99.90;;;;;;5096965;28;20197;-74
2024/04/01 21:19:22;;;;;;;53.47;8.20;;;18.90;99.90;;;;;;5096836;28;20216;-75
2024/04/01 21:22:08;;;;;;;45.67;8.33;;;18.90;99.90;;;;;;5097559;28;20195;-74
2024/04/01 21:24:55;;;;;;;45.27;7.37;;;18.80;99.90;;;;;;5096817;28;20220;-74
2024/04/01 21:27:54;;;;;;;56.67;7.83;;;18.80;99.90;;;;;;5096855;28;20643;-75
2024/04/01 21:30:51;;;;;;;45.27;7.57;;;18.80;99.90;;;;;;5095382;28;20192;-75
2024/04/01 21:33:38;;;;;;;57.23;7.70;;;18.80;99.90;;;;;;5096133;28;20199;-74
2024/04/01 21:36:25;;;;;;;56.73;7.53;;;18.70;99.90;;;;;;5095849;28;20192;-75
2024/04/01 21:39:11;;;;;;;42.87;7.17;;;18.80;99.90;;;;;;5096929;28;20602;-75
2024/04/01 21:41:58;;;;;;;40.67;6.83;;;18.80;99.90;;;;;;5095576;28;20197;-75
2024/04/01 21:44:44;;;;;;;51.23;7.83;;;18.80;99.90;;;;;;5095785;28;20740;-75
2024/04/01 21:47:31;;;;;;;48.30;7.40;;;18.80;99.90;;;;;;5096056;28;20555;-75
2024/04/01 21:50:18;;;;;;;46.70;7.60;;;18.80;99.90;;;;;;5082547;28;20219;-75
2024/04/01 21:53:06;;;;;;;57.87;8.17;;;18.70;99.90;;;;;;5083072;28;20189;-75
2024/04/01 21:55:52;;;;;;;50.63;7.80;;;18.70;99.90;;;;;;5095862;28;20197;-75
2024/04/01 21:58:39;;;;;;;45.67;8.10;;;18.60;99.90;;;;;;5077467;28;20192;-75
2024/04/01 22:01:25;;;;;;;49.67;7.40;;;18.60;99.90;;;;;;5096346;28;20648;-76
2024/04/01 22:04:12;;;;;;;52.03;7.43;;;18.60;99.90;;;;;;5095680;28;20232;-75
2024/04/01 22:06:59;;;;;;;51.67;7.93;;;18.70;99.90;;;;;;5095725;28;20188;-75
2024/04/01 22:09:45;;;;;;;45.43;7.37;;;18.70;99.90;;;;;;5095782;28;20193;-74
2024/04/01 22:12:35;;;;;;;47.13;7.73;;;18.70;99.90;;;;;;5096372;28;20203;-74
2024/04/01 22:15:22;;;;;;;43.97;8.40;;;18.60;99.90;;;;;;5082213;28;20275;-74
2024/04/01 22:18:08;;;;;;;48.00;7.80;;;18.60;99.90;;;;;;5081744;28;20184;-74
2024/04/01 22:20:56;;;;;;;56.27;8.77;;;18.60;99.90;;;;;;5096604;28;20205;-74
2024/04/01 22:23:42;;;;;;;48.60;8.40;;;18.60;99.90;;;;;;5095129;28;20708;-74
2024/04/01 22:26:29;;;;;;;44.30;7.67;;;18.50;99.90;;;;;;5096035;28;20231;-74
2024/04/01 22:29:15;;;;;;;58.40;7.93;;;18.50;99.90;;;;;;5095185;28;20249;-73
2024/04/01 22:32:01;;;;;;;50.23;7.77;;;18.50;99.90;;;;;;5096555;28;20189;-74
2024/04/01 22:34:48;;;;;;;49.07;8.77;;;18.40;99.90;;;;;;5095861;28;20217;-75
2024/04/01 22:37:34;;;;;;;44.77;7.33;;;18.40;99.90;;;;;;5096618;28;20566;-75
2024/04/01 22:40:21;;;;;;;56.23;8.43;;;18.40;99.90;;;;;;5096082;28;20197;-74
2024/04/01 22:43:07;;;;;;;55.53;8.40;;;18.40;99.90;;;;;;5097036;28;20554;-74
2024/04/01 22:45:53;;;;;;;55.57;8.07;;;18.20;99.90;;;;;;5095444;28;20189;-74
2024/04/01 22:48:40;;;;;;;55.97;7.40;;;18.20;99.90;;;;;;5094751;28;20200;-74
2024/04/01 22:51:26;;;;;;;47.97;7.93;;;18.20;99.90;;;;;;5097751;28;20644;-74
2024/04/01 22:54:13;;;;;;;47.40;8.83;;;18.10;99.90;;;;;;5085944;28;20535;-74
2024/04/01 22:57:01;;;;;;;54.60;7.80;;;18.00;99.90;;;;;;5099186;28;20195;-75
2024/04/01 22:59:47;;;;;;;54.90;7.37;;;18.00;99.90;;;;;;5099244;28;20216;-75
2024/04/01 23:02:37;;;;;;;47.77;8.83;;;17.90;99.90;;;;;;5090858;28;20192;-74
2024/04/01 23:05:24;;;;;;;48.93;8.43;;;17.80;99.90;;;;;;5099785;28;20602;-74
2024/04/01 23:08:10;;;;;;;47.70;7.57;;;17.80;99.90;;;;;;5099417;28;20539;-74
2024/04/01 23:10:57;;;;;;;48.03;8.13;;;17.70;99.90;;;;;;5099421;28;20304;-74
2024/04/01 23:13:43;;;;;;;47.60;7.57;;;17.70;99.90;;;;;;5099972;28;20219;-74
2024/04/01 23:16:30;;;;;;;53.67;9.30;;;17.70;99.90;;;;;;5077888;28;20537;-74
2024/04/01 23:19:16;;;;;;;50.27;7.83;;;17.50;99.90;;;;;;5086210;28;20684;-74
2024/04/01 23:22:03;;;;;;;55.53;8.30;;;17.50;99.90;;;;;;5099224;28;20197;-74
2024/04/01 23:24:49;;;;;;;46.77;7.20;;;17.50;99.90;;;;;;5099638;28;20216;-74
2024/04/01 23:27:36;;;;;;;47.33;7.47;;;17.40;99.90;;;;;;5086305;28;20189;-74
2024/04/01 23:30:22;;;;;;;48.90;7.13;;;17.30;99.90;;;;;;5098989;28;20682;-74
2024/04/01 23:33:09;;;;;;;36.00;6.43;;;17.20;99.90;;;;;;5098508;28;20204;-74
2024/04/01 23:35:55;;;;;;;38.60;6.63;;;17.10;99.90;;;;;;5098255;28;20213;-74
2024/04/01 23:38:42;;;;;;;36.73;6.63;;;17.00;99.90;;;;;;5085360;28;20197;-74
2024/04/01 23:41:29;;;;;;;32.43;5.30;;;17.00;99.90;;;;;;5085371;28;20192;-74
2024/04/01 23:44:15;;;;;;;40.40;5.80;;;16.90;99.90;;;;;;5099379;28;20574;-74
2024/04/01 23:47:03;;;;;;;36.87;6.57;;;16.80;99.90;;;;;;5098656;28;20222;-74
2024/04/01 23:49:49;;;;;;;44.47;5.87;;;16.60;99.90;;;;;;5099802;28;20216;-74
2024/04/01 23:52:36;;;;;;;33.27;5.73;;;16.60;99.90;;;;;;5098773;28;20218;-74
2024/04/01 23:55:22;;;;;;;37.77;5.60;;;16.60;99.90;;;;;;5099084;28;20188;-74
2024/04/01 23:58:11;;;;;;;29.17;5.60;;;16.40;99.90;;;;;;5098503;28;20184;-74
